Date,TemperatureHighF,TemperatureAvgF,TemperatureLowF,DewpointHighF,DewpointAvgF,DewpointLowF,HumidityHigh,HumidityAvg,HumidityLow,PressureMaxIn,PressureMinIn,WindSpeedMaxMPH,WindSpeedAvgMPH,GustSpeedMaxMPH,PrecipitationSumIn
2014-1-1,-2,-8,-14,-9,-15,-20,77,73,65,30.63,30.55,10,4,10,0.00
2014-1-2,1,-12,-22,-14,-19,-27,82,70,47,30.62,30.45,9,2,11,0.00
2014-1-3,23,4,-23,21,-1,-28,92,81,72,30.46,29.46,22,4,22,0.00
2014-1-4,26,12,-7,25,5,-13,96,75,58,30.30,29.43,21,9,28,0.00
2014-1-5,-7,-14,-25,-13,-20,-30,84,73,62,30.46,30.30,21,5,21,0.00
2014-1-6,-13,-17,-23,-23,-25,-30,75,67,62,30.40,30.24,18,6,18,0.00
2014-1-7,0,-14,-28,-8,-19,-32,83,77,70,30.38,30.22,12,2,13,0.00
2014-1-8,1,-13,-23,-8,-18,-27,84,78,62,30.58,30.37,8,1,8,0.00
2014-1-9,16,2,-24,13,-3,-29,91,79,67,30.53,29.97,17,4,18,0.00
2014-1-10,28,23,16,27,22,13,97,95,91,29.97,29.50,16,4,16,0.00
2014-1-11,30,26,15,28,24,13,97,93,86,29.67,29.48,13,4,17,0.00
2014-1-12,38,30,17,31,26,15,96,88,75,29.64,29.35,18,3,18,0.12
2014-1-13,32,25,14,28,19,10,94,80,66,29.67,29.48,21,5,21,0.00
2014-1-14,20,14,3,18,10,0,93,85,78,30.17,29.57,22,8,22,0.00
2014-1-15,19,5,-12,17,2,-16,92,85,76,30.18,29.41,20,4,20,0.00
2014-1-16,31,15,8,30,10,0,96,80,66,29.92,29.35,28,10,28,0.00
2014-1-17,13,5,-1,4,-1,-6,83,76,60,30.11,29.87,28,6,28,0.00
2014-1-18,21,13,5,13,8,0,89,78,61,29.99,29.69,16,6,16,0.01
2014-1-19,32,25,16,27,22,13,95,87,73,29.73,29.48,22,5,22,0.01
2014-1-20,25,8,-9,20,0,-18,90,69,50,30.52,29.72,19,10,23,0.00
2014-1-21,-1,-10,-24,-5,-16,-28,84,74,63,30.54,30.09,9,2,12,0.00
2014-1-22,3,-2,-9,-1,-8,-15,85,73,60,30.57,30.03,28,11,31,0.01
2014-1-23,-1,-12,-19,-6,-18,-24,84,74,64,30.80,30.21,19,6,19,0.00
2014-1-24,30,20,-1,26,15,-6,92,81,51,30.21,29.49,35,8,35,0.00
2014-1-25,17,3,-1,2,-8,-12,85,60,46,29.91,29.61,18,6,33,0.00
2014-1-26,12,2,-10,5,-3,-18,86,77,63,30.11,29.42,27,10,35,0.00
2014-1-27,-6,-13,-19,-18,-21,-26,77,65,55,30.47,30.11,20,8,26,0.00
2014-1-28,-3,-13,-25,-12,-19,-29,81,73,60,30.46,30.13,16,3,19,0.00
2014-1-29,22,5,-14,15,-2,-18,84,73,53,30.14,29.63,17,3,17,0.00
2014-1-30,20,10,-8,14,3,-15,89,72,56,30.09,29.61,21,8,21,0.00
2014-1-31,6,-7,-22,-4,-13,-26,86,75,61,30.20,30.08,16,2,16,0.00
2014-2-1,18,6,-12,10,1,-16,87,77,69,30.27,30.00,15,4,15,0.00
2014-2-2,12,-2,-22,1,-8,-26,87,77,62,30.35,30.27,14,3,14,0.00
2014-2-3,16,-1,-17,6,-7,-21,87,77,59,30.45,30.26,12,2,16,0.00
2014-2-4,8,0,-11,-2,-7,-15,89,74,59,30.59,30.45,16,6,16,0.00
2014-2-5,4,-1,-5,-3,-7,-11,83,73,68,30.60,30.53,17,7,18,0.00
2014-2-6,0,-9,-15,-8,-13,-19,85,81,70,30.53,30.25,13,3,13,0.00
2014-2-7,9,-1,-10,-5,-8,-14,85,72,52,30.24,30.18,15,6,21,0.00
2014-2-8,14,-4,-22,6,-9,-27,88,80,69,30.27,30.19,7,1,8,0.00
2014-2-9,4,-1,-7,-3,-9,-14,84,70,58,30.46,30.26,13,6,17,0.00
2014-2-10,5,-7,-18,-7,-14,-22,83,73,58,30.57,30.46,8,2,12,0.00
2014-2-11,11,-3,-26,7,-10,-31,87,73,59,30.55,30.14,14,4,22,0.00
2014-2-12,22,15,10,16,9,7,89,77,56,30.17,29.83,9,3,15,0.00
2014-2-13,25,19,11,23,14,6,93,83,70,29.82,29.45,18,9,26,0.00
2014-2-14,16,5,-9,5,-2,-12,86,73,55,30.08,29.77,16,6,18,0.00
2014-2-15,17,7,-8,13,2,-12,88,83,73,30.15,29.89,11,3,16,0.00
2014-2-16,20,10,-11,12,4,-14,89,76,62,30.33,30.08,15,5,18,0.00
2014-2-17,26,21,14,22,17,12,94,84,70,30.08,29.72,19,6,28,0.00
2014-2-18,38,26,10,27,21,8,95,83,62,29.76,29.57,8,2,12,0.04
2014-2-19,42,30,16,30,23,14,94,77,51,29.82,29.70,10,4,14,0.00
2014-2-20,35,31,18,33,28,16,97,87,76,29.71,29.26,21,8,33,0.07
2014-2-21,17,11,8,15,8,4,93,87,80,29.75,29.25,29,13,29,0.00
2014-2-22,16,8,3,7,2,-1,85,77,67,30.14,29.76,16,9,26,0.00
2014-2-23,19,8,-1,6,1,-5,84,71,56,30.28,30.14,18,9,26,0.00
2014-2-24,12,5,-4,2,-3,-9,80,69,55,30.37,30.28,14,7,18,0.00
2014-2-25,6,-2,-11,-6,-11,-18,84,67,48,30.39,30.31,14,7,21,0.00
2014-2-26,16,0,-14,7,-10,-20,80,66,49,30.38,29.65,25,11,32,0.00
2014-2-27,-3,-12,-22,-19,-24,-28,73,57,39,30.29,30.01,22,4,24,0.00
2014-2-28,12,-2,-22,2,-10,-28,81,67,54,30.27,30.00,12,4,16,0.00
2014-3-1,1,-5,-13,-6,-16,-26,76,60,44,30.63,30.27,14,8,17,0.00
2014-3-2,5,-6,-19,-10,-18,-27,71,57,46,30.64,30.57,10,4,15,0.00
2014-3-3,6,-5,-25,2,-12,-30,86,71,52,30.63,30.36,7,2,10,0.00
2014-3-4,18,10,5,6,3,-1,87,74,57,30.40,30.27,8,3,13,0.01
2014-3-5,23,13,2,9,3,-3,78,63,52,30.56,30.38,14,5,16,0.00
2014-3-6,28,20,10,23,14,1,88,77,66,30.39,29.81,18,6,25,0.00
2014-3-7,31,26,19,29,22,13,95,86,74,30.24,29.81,18,7,24,0.01
2014-3-8,28,18,3,14,10,0,90,73,50,30.38,30.17,10,4,12,0.01
2014-3-9,43,31,15,33,24,12,88,77,64,30.17,29.64,13,5,18,0.02
2014-3-10,54,42,30,37,32,29,97,70,43,29.68,29.57,11,4,15,0.01
2014-3-11,42,37,28,32,24,14,78,61,43,30.04,29.67,18,9,28,0.00
2014-3-12,28,20,14,15,9,6,82,65,52,30.18,30.04,16,5,22,0.00
2014-3-13,46,32,16,37,24,8,86,74,59,30.04,29.50,9,4,15,0.00
2014-3-14,41,35,23,37,27,15,89,74,62,29.97,29.48,22,9,29,0.00
2014-3-15,27,20,14,15,9,2,83,63,43,30.50,29.98,14,6,17,0.00
2014-3-16,21,14,1,10,2,-4,80,61,42,30.56,30.05,10,3,16,0.00
2014-3-17,27,24,20,22,18,10,86,79,65,30.05,29.65,14,7,22,0.00
2014-3-18,29,26,25,28,25,22,96,94,85,29.89,29.73,13,7,17,0.02
2014-3-19,34,29,25,28,26,21,96,88,76,29.98,29.84,14,7,20,0.02
2014-3-20,41,29,11,29,23,9,94,80,60,30.04,29.93,7,2,10,0.09
2014-3-21,38,31,18,35,27,12,95,85,76,30.16,29.72,24,8,32,0.19
2014-3-22,18,11,3,11,2,-3,76,67,55,30.56,30.17,19,9,28,0.00
2014-3-23,20,8,-10,7,0,-13,87,72,53,30.57,30.41,12,2,15,0.00
2014-3-24,29,14,-6,18,5,-10,90,70,41,30.42,30.13,16,5,26,0.00
2014-3-25,22,12,3,6,1,-4,77,61,48,30.31,30.17,20,7,25,0.00
2014-3-26,35,18,-5,22,8,-9,91,69,49,30.20,29.66,20,6,25,0.00
2014-3-27,38,34,29,37,31,23,97,92,64,29.78,29.52,17,6,19,0.24
2014-3-28,34,28,20,27,16,10,92,64,37,30.29,29.79,14,5,19,0.01
2014-3-29,42,30,14,24,14,9,79,55,37,30.32,30.09,13,3,16,0.00
2014-3-30,52,43,34,35,32,24,81,67,52,30.08,29.84,14,4,18,0.00
2014-3-31,44,40,35,39,36,33,95,84,72,29.83,29.37,15,8,20,0.10
2014-4-1,35,26,17,33,20,14,96,79,60,30.14,29.40,22,9,33,0.04
2014-4-2,39,28,13,22,16,9,85,63,44,30.28,30.15,9,3,14,0.01
2014-4-3,35,31,25,29,24,20,96,75,57,30.17,29.87,16,10,21,0.01
2014-4-4,40,31,25,33,26,20,96,84,59,30.04,29.79,24,11,29,0.01
2014-4-5,46,33,14,35,26,12,95,75,55,30.12,29.96,13,3,17,0.00
2014-4-6,54,43,33,36,33,29,92,70,49,29.96,29.81,8,2,12,0.00
2014-4-7,53,41,29,39,32,25,95,72,49,29.84,29.77,11,4,15,0.00
2014-4-8,47,39,30,32,27,23,83,64,44,29.99,29.82,17,7,23,0.00
2014-4-9,63,46,27,46,34,22,87,64,42,29.95,29.44,15,4,21,0.00
2014-4-10,56,49,38,44,30,25,72,50,31,29.89,29.49,30,8,31,0.00
2014-4-11,59,48,32,42,34,25,91,62,35,29.95,29.89,11,4,17,0.13
2014-4-12,47,42,36,43,37,30,95,85,53,29.97,29.76,20,8,31,0.48
2014-4-13,40,36,31,36,31,22,96,82,65,30.00,29.79,22,10,29,0.00
2014-4-14,33,28,23,23,14,7,72,56,37,30.14,29.97,25,14,32,0.00
2014-4-15,34,25,16,15,8,-2,75,51,26,30.19,30.09,11,4,15,0.00
2014-4-16,29,28,26,28,23,10,96,85,45,30.13,30.04,20,11,25,0.00
2014-4-17,41,32,27,32,28,24,96,85,65,30.34,30.10,19,8,23,0.00
2014-4-18,44,34,19,28,24,16,96,69,46,30.42,30.25,13,4,17,0.00
2014-4-19,53,43,36,42,34,25,95,70,54,30.24,29.99,22,7,31,0.02
2014-4-20,70,50,29,44,37,28,98,68,31,30.07,29.94,7,1,10,0.00
2014-4-21,64,52,36,42,36,29,84,56,39,30.06,29.86,21,8,28,0.00
2014-4-22,56,42,31,31,28,24,84,60,31,30.14,30.05,14,5,22,0.00
2014-4-23,50,41,32,38,30,25,94,69,42,30.12,29.98,15,5,21,0.25
2014-4-24,40,38,35,39,37,34,98,95,93,29.98,29.70,16,7,20,0.49
2014-4-25,52,42,35,39,36,33,99,82,55,29.96,29.70,19,6,22,0.00
2014-4-26,51,40,31,36,32,29,94,75,49,30.09,29.95,19,9,23,0.00
2014-4-27,40,38,35,36,34,31,94,86,73,30.01,29.79,26,14,35,0.97
2014-4-28,41,39,38,38,36,33,94,88,79,29.82,29.73,24,14,31,0.86
2014-4-29,40,37,35,35,33,30,93,85,75,29.82,29.76,27,15,35,0.15
2014-4-30,43,39,35,40,37,34,95,92,87,29.79,29.76,18,11,24,0.24
2014-5-1,47,42,37,42,38,36,95,87,76,29.83,29.72,18,9,23,0.08
2014-5-2,52,44,36,45,40,35,96,86,72,29.80,29.61,13,3,14,0.03
2014-5-3,56,46,38,39,35,30,94,66,42,29.96,29.67,17,8,26,0.00
2014-5-4,56,45,31,39,29,24,89,57,31,30.13,29.96,12,4,17,0.00
2014-5-5,62,50,42,40,36,31,81,61,38,30.04,29.93,15,6,19,0.00
2014-5-6,64,50,39,41,38,36,90,66,40,30.01,29.82,19,8,28,0.01
2014-5-7,68,52,40,51,41,35,94,68,49,29.88,29.68,24,10,28,0.41
2014-5-8,57,48,44,53,47,43,97,94,84,29.80,29.53,15,6,21,1.37
2014-5-9,56,48,43,56,46,39,99,92,82,29.77,29.41,22,6,24,0.05
2014-5-10,68,54,35,52,40,32,96,63,29,29.88,29.77,13,4,21,0.02
2014-5-11,74,60,48,57,49,43,98,71,38,29.86,29.78,10,3,19,0.02
2014-5-12,48,43,39,44,41,38,97,95,83,29.82,29.71,14,7,17,0.90
2014-5-13,53,46,39,43,39,35,98,77,54,30.15,29.78,18,8,27,0.00
2014-5-14,55,45,34,38,32,27,91,63,36,30.23,30.15,16,6,23,0.00
2014-5-15,46,41,35,37,33,30,85,73,61,30.23,30.12,23,7,23,0.00
2014-5-16,54,45,38,33,29,23,77,56,36,30.13,30.02,18,5,21,0.00
2014-5-17,66,54,39,37,32,26,72,47,24,30.02,29.93,13,4,21,0.00
2014-5-18,72,59,38,42,38,35,90,50,28,30.02,29.93,15,4,22,0.00
2014-5-19,58,54,51,51,46,38,98,77,51,29.97,29.75,18,7,24,0.86
2014-5-20,76,61,52,58,53,48,99,79,41,29.85,29.75,10,3,15,0.14
2014-5-21,64,57,44,53,47,42,91,69,52,30.09,29.80,16,6,21,0.00
2014-5-22,70,56,41,49,44,39,96,66,39,30.19,30.10,11,3,17,0.00
2014-5-23,76,61,43,51,45,40,95,61,28,30.23,30.09,10,2,12,0.00
2014-5-24,82,67,52,56,50,47,87,58,35,30.12,29.99,14,2,18,0.00
2014-5-25,80,69,54,63,54,47,87,61,36,30.01,29.85,11,3,19,0.00
2014-5-26,84,69,58,68,64,57,98,83,50,29.85,29.79,8,1,11,0.12
2014-5-27,70,61,53,64,57,48,98,88,68,30.00,29.83,9,4,15,0.92
2014-5-28,80,63,45,59,48,40,84,62,29,30.09,29.99,11,4,15,0.00
2014-5-29,84,66,45,57,51,43,92,62,31,30.11,30.01,10,2,12,0.00
2014-5-30,86,71,54,69,58,51,92,66,42,30.11,29.97,14,3,16,0.00
2014-5-31,71,66,60,66,61,52,98,86,54,30.03,29.85,14,4,25,2.03
2014-6-1,75,69,64,68,66,63,99,91,78,29.84,29.67,8,3,16,0.22
2014-8-10,77,69,62,69,64,60,97,88,71,30.03,29.94,5,2,9,0.34
2014-8-11,76,67,59,66,62,58,98,86,55,30.02,29.90,12,7,29,0.20
2014-8-12,77,66,52,61,57,52,98,76,48,30.03,29.93,9,3,19,0.01
2014-8-13,77,67,56,63,58,55,98,76,46,30.06,29.94,7,2,16,0.00
2014-8-14,77,64,51,61,55,50,97,75,49,30.13,29.96,6,2,14,0.00
2014-8-15,83,70,55,69,63,53,97,80,61,29.97,29.79,6,2,13,0.00
2014-8-16,86,70,62,74,66,61,99,89,59,29.85,29.77,12,4,12,0.32
2014-8-17,65,61,58,61,58,54,98,92,84,29.92,29.79,12,6,16,0.12
2014-8-18,61,60,59,61,60,59,99,98,98,29.79,29.70,8,2,8,0.01
2014-8-19,77,67,58,68,63,57,99,90,69,29.71,29.55,5,2,14,0.15
2014-8-20,77,66,56,67,62,56,99,89,69,29.82,29.71,8,2,14,0.01
2014-8-21,73,68,63,71,66,62,98,94,90,29.81,29.70,7,4,14,0.35
2014-8-22,74,66,62,69,65,62,99,94,84,29.95,29.77,6,4,11,0.00
2014-8-23,74,70,62,70,67,61,98,91,86,29.95,29.85,13,5,15,0.00
2014-8-24,82,74,68,75,71,67,97,91,77,29.84,29.67,10,5,20,0.06
2014-8-25,74,67,58,67,60,55,99,80,56,29.94,29.73,8,3,22,0.00
2014-8-26,70,61,51,56,53,48,93,75,58,30.11,29.96,7,3,18,0.00
2014-8-27,74,63,54,60,56,53,98,80,55,30.15,30.04,2,1,9,0.04
2014-8-28,58,57,56,57,56,55,98,96,94,30.06,30.02,3,1,3,0.00
2014-8-29,68,64,63,66,63,62,99,97,95,29.83,29.67,6,3,14,0.88
2014-8-30,73,67,62,65,63,60,98,87,74,29.79,29.68,8,3,8,0.00
2014-8-31,82,68,57,74,64,57,99,89,72,29.82,29.49,14,4,28,0.20
2014-9-1,65,64,63,64,63,62,98,98,97,29.54,29.49,9,2,9,0.80
2014-9-2,77,64,50,61,55,50,99,77,46,29.78,29.66,7,2,18,0.00
2014-9-3,70,61,55,63,59,54,99,93,76,29.77,29.60,19,3,31,2.95
2014-9-4,79,68,60,74,65,59,99,92,78,29.75,29.51,18,4,33,0.91
2014-9-5,66,59,49,59,52,47,97,78,57,30.06,29.75,11,4,20,0.00
2014-9-6,74,58,48,59,53,47,97,86,44,30.11,30.01,10,1,16,0.00
2014-9-7,77,62,48,62,55,47,98,77,54,30.04,29.91,15,2,15,0.00
2014-9-8,73,64,55,63,57,51,91,80,65,29.91,29.72,21,3,21,0.00
2014-9-9,73,65,56,68,62,54,98,92,80,29.79,29.68,21,3,22,0.29
2014-9-10,59,49,42,57,46,39,96,91,80,30.06,29.68,25,10,25,0.68
2014-9-11,54,47,40,43,40,38,97,81,58,30.34,30.06,12,3,15,0.00
2014-9-12,50,44,39,41,38,35,97,82,57,30.39,30.28,10,2,14,0.00
2014-9-13,58,46,30,44,38,30,99,76,46,30.29,30.05,14,2,15,0.00
2014-9-14,61,52,40,48,45,39,95,77,57,30.08,29.99,21,3,21,0.00
2014-9-15,58,48,38,49,40,36,98,78,47,30.15,30.07,22,3,22,0.01
2014-9-16,69,51,36,50,43,35,98,78,45,30.13,29.93,14,2,14,0.00
2014-9-17,75,54,40,58,48,39,99,82,46,30.03,29.86,18,3,18,0.00
2014-9-18,66,51,40,58,48,38,99,90,74,30.06,29.90,14,4,14,0.00
2014-9-19,66,61,55,64,58,54,97,90,80,29.86,29.52,19,2,19,0.01
2014-9-20,70,62,54,62,58,52,99,87,65,29.71,29.53,25,4,27,0.16
2014-9-21,64,55,45,51,48,44,96,80,55,30.14,29.72,14,5,22,0.04
2014-9-22,72,55,39,57,49,38,99,82,51,30.18,30.05,14,2,14,0.01
2014-9-23,74,58,41,60,51,40,99,80,50,30.15,30.06,16,2,16,0.00
2014-9-24,66,60,57,57,55,53,90,82,68,30.10,30.05,16,4,16,0.00
2014-9-25,74,65,59,66,60,55,93,85,73,30.12,30.05,11,2,11,0.00
2014-9-26,79,64,51,63,57,51,99,79,50,30.11,30.02,17,2,17,0.01
2014-9-27,81,68,58,67,61,55,94,79,57,30.05,29.97,17,2,17,0.00
2014-9-28,82,67,53,66,60,52,99,80,42,30.03,29.92,14,2,14,0.00
2014-9-29,62,50,42,58,46,39,96,87,75,30.10,29.95,20,8,20,0.28
2014-9-30,57,46,41,48,42,39,95,86,69,30.09,29.85,17,7,17,0.00
2014-10-1,54,51,48,54,50,45,99,95,83,29.83,29.70,12,4,20,0.24
2014-10-2,58,54,49,55,53,48,99,97,90,29.78,29.65,7,1,10,0.31
2014-10-3,50,42,37,49,40,35,99,93,88,29.69,29.60,26,7,29,0.33
2014-10-4,47,41,32,38,35,30,94,81,64,29.70,29.60,27,8,27,0.01
2014-10-5,48,40,32,37,33,30,95,78,55,29.60,29.45,16,4,16,0.00
2014-10-6,56,44,31,45,38,29,92,78,52,29.45,29.31,18,3,20,0.00
2014-10-7,53,43,32,41,36,30,96,76,50,29.78,29.39,26,4,26,0.00
2014-10-8,51,38,28,36,30,27,97,76,46,30.05,29.77,20,3,20,0.01
2014-10-9,51,39,29,39,33,27,95,81,59,30.19,30.05,16,3,16,0.00
2014-10-10,51,39,29,39,32,27,97,79,52,30.24,30.16,12,2,13,0.01
2014-10-11,58,40,24,39,32,23,97,75,45,30.21,29.92,19,2,19,0.00
2014-10-12,61,48,38,46,38,34,89,69,44,29.92,29.69,22,4,22,0.00
2014-10-13,52,50,49,51,49,46,97,94,81,29.78,29.70,16,4,16,0.07
2014-10-14,63,52,39,48,43,36,96,75,39,29.95,29.76,25,7,25,0.00
2014-10-15,65,48,32,46,39,30,98,74,37,29.99,29.81,10,2,10,0.00
2014-10-16,70,52,34,48,41,32,97,72,40,29.81,29.45,22,3,22,0.00
2014-10-17,55,51,46,49,45,40,94,80,67,30.01,29.46,25,8,25,0.01
2014-10-18,53,44,35,40,35,32,93,72,50,30.19,30.01,20,4,20,0.00
2014-10-19,66,49,32,49,42,31,98,76,52,30.03,29.68,19,4,19,0.00
2014-10-20,56,48,39,46,41,36,96,80,63,30.05,29.79,17,4,17,0.00
2014-10-21,56,44,30,42,37,29,98,79,54,30.17,30.05,17,4,17,0.00
2014-10-22,58,48,38,47,40,36,92,76,59,30.15,29.95,23,6,23,0.04
2014-10-23,64,53,48,56,49,42,98,87,67,29.95,29.86,11,2,11,0.14
2014-10-24,68,55,45,56,50,44,99,84,63,29.88,29.72,13,3,13,0.01
2014-10-25,61,52,37,45,34,26,71,51,27,29.96,29.77,24,5,24,0.00
2014-10-26,63,46,28,39,30,26,95,59,28,29.96,29.60,19,3,19,0.00
2014-10-27,63,50,39,47,39,32,94,67,47,29.60,29.48,16,3,16,0.03
2014-10-28,46,41,36,42,37,32,97,88,73,29.87,29.57,27,6,27,0.04
2014-10-29,41,38,34,36,34,32,93,85,78,30.09,29.87,20,4,20,0.01
2014-10-30,43,37,29,37,32,16,96,82,53,30.34,30.01,29,6,29,0.00
2014-10-31,39,30,21,22,19,16,89,65,41,30.55,30.34,20,5,26,0.00
2014-11-1,41,29,17,26,21,15,93,73,44,30.46,30.15,18,3,18,0.00
2014-11-2,56,42,30,32,28,22,75,59,38,30.15,29.82,22,4,22,0.00
2014-11-3,50,44,39,44,37,30,96,76,59,29.82,29.69,15,2,15,0.01
2014-11-4,47,42,38,40,33,28,91,72,62,29.92,29.72,26,6,26,0.00
2014-11-5,38,33,29,33,31,26,98,91,69,30.03,29.89,11,3,11,0.15
2014-11-6,40,34,26,34,31,25,96,89,73,30.25,30.03,14,4,14,0.14
2014-11-7,41,34,25,40,32,24,97,92,84,30.17,29.62,26,5,26,0.07
2014-11-8,39,36,32,35,27,22,91,69,53,29.96,29.73,31,9,31,0.00
2014-11-9,35,29,25,33,18,10,94,65,36,29.82,29.67,17,4,17,0.00
2014-11-10,26,24,22,25,22,18,96,91,72,29.96,29.73,28,10,28,0.00
2014-11-11,23,20,17,21,19,15,95,93,90,30.22,29.95,27,10,27,0.00
2014-11-12,26,19,8,24,18,6,94,93,90,30.31,30.21,11,3,14,0.00
2014-11-13,24,20,16,21,18,13,94,90,83,30.35,30.30,17,6,22,0.00
2014-11-14,23,13,4,20,10,1,91,88,84,30.35,30.30,9,2,9,0.00
2014-11-15,20,7,-7,17,5,-10,94,89,85,30.34,30.10,9,1,9,0.00
2014-11-16,17,11,6,15,8,3,93,88,78,30.10,29.80,20,4,20,0.00
2014-11-17,16,11,7,9,5,2,90,75,64,29.95,29.83,24,10,27,0.00
2014-11-18,16,12,5,12,6,0,89,77,65,29.99,29.75,19,4,19,0.00
2014-11-19,24,18,14,18,13,5,92,80,63,29.90,29.69,27,7,27,0.00
2014-11-20,15,8,-7,5,0,-10,85,70,57,30.25,29.91,18,5,19,0.00
2014-11-21,28,14,-7,25,9,-11,89,81,65,30.27,29.82,11,3,17,0.00
2014-11-22,36,33,27,35,31,25,98,93,86,29.82,29.46,18,5,18,0.00
2014-11-23,42,38,36,41,38,35,99,98,96,29.46,29.27,12,2,12,0.20
2014-11-24,36,24,15,35,20,11,96,87,78,29.87,29.24,28,12,28,0.01
2014-11-25,20,15,7,16,11,5,91,85,79,30.08,29.87,14,3,17,0.00
2014-11-26,24,19,4,19,13,-2,89,79,62,30.43,30.07,18,7,21,0.00
2014-11-27,10,3,-5,4,-3,-9,85,76,58,30.53,30.29,13,3,14,0.00
2014-11-28,18,14,8,15,10,4,89,87,83,30.29,29.69,12,5,12,0.00
2014-11-29,32,25,18,29,22,15,95,90,77,29.70,29.39,20,3,20,0.05
2014-11-30,22,10,3,16,2,-4,79,69,58,30.42,29.64,23,7,23,0.00
2014-12-1,5,0,-6,-3,-10,-14,75,63,47,30.77,30.42,22,4,22,0.00
2014-12-2,21,13,0,13,7,-6,91,76,65,30.43,29.93,20,4,20,0.00
2014-12-3,21,14,6,12,7,2,92,76,50,30.33,29.95,19,4,19,0.00
2014-12-4,31,20,4,18,11,1,90,69,44,30.34,30.08,11,3,17,0.00
2014-12-5,35,28,17,29,24,14,95,84,72,30.40,30.06,12,2,12,0.00
2014-12-6,28,21,11,20,15,8,90,77,59,30.66,30.40,12,3,15,0.00
2014-12-7,34,30,26,31,25,18,96,83,71,30.53,29.96,21,5,21,0.01
2014-12-8,33,27,18,32,25,15,98,90,84,30.32,29.89,21,7,21,0.00
2014-12-9,23,20,15,21,19,13,94,93,88,30.50,30.31,16,3,16,0.00
2014-12-10,27,24,22,25,23,21,96,94,91,30.42,30.25,9,3,12,0.00
2014-12-11,30,28,24,29,26,23,97,95,93,30.26,30.15,14,4,14,0.00
2014-12-12,34,32,30,34,32,29,98,97,94,30.18,30.03,11,4,14,0.08
2014-12-13,42,38,34,41,38,33,99,99,98,30.02,29.87,7,1,9,0.10
2014-12-14,46,44,41,46,44,41,100,100,99,29.88,29.73,9,2,9,0.07
2014-12-15,46,39,26,46,39,25,100,99,95,29.86,29.66,27,7,27,0.43
2014-12-16,26,20,16,25,17,12,95,89,84,30.24,29.85,27,11,27,0.00
2014-12-17,19,14,9,14,11,7,94,85,74,30.35,30.24,14,3,14,0.00
2014-12-18,22,19,15,20,17,13,93,91,88,30.35,30.26,10,2,10,0.00
2014-12-19,27,24,21,25,22,19,92,90,86,30.27,30.14,11,4,13,0.00
2014-12-20,31,30,27,29,28,25,93,92,90,30.14,30.03,15,4,15,0.00
2014-12-21,35,33,30,35,32,28,99,96,92,30.03,29.69,16,6,16,0.04
2014-12-22,36,35,34,36,34,33,99,98,95,29.69,29.60,20,7,20,0.08
2014-12-23,35,34,34,34,33,32,97,95,92,29.83,29.65,17,8,21,0.05
2014-12-24,35,34,31,33,32,29,97,93,88,29.83,29.50,15,4,15,0.01
2014-12-25,33,32,30,31,30,28,97,92,89,29.88,29.51,14,4,14,0.00
2014-12-26,31,29,26,29,26,22,97,89,81,30.09,29.86,16,7,16,0.00
2014-12-27,28,22,15,22,16,11,91,78,53,30.06,30.00,14,6,18,0.00
2014-12-28,20,15,5,17,9,-1,93,76,54,30.41,30.03,15,4,15,0.00
2014-12-29,8,2,-3,-1,-5,-8,83,72,53,30.72,30.41,15,5,15,0.00
2014-12-30,4,-1,-6,-4,-8,-11,83,73,63,30.77,30.56,16,5,16,0.00
2014-12-31,16,6,-4,13,0,-8,87,78,62,30.56,29.88,24,6,24,0.00
2015-1-1,28,19,7,23,12,-5,93,74,46,30.14,29.76,24,6,24,0.00
2015-1-2,26,12,-2,23,7,-5,89,79,62,30.19,29.98,13,2,13,0.00